createdAt,value
2023-04-26T00:00:34.139Z,100297.86
2023-04-26T00:03:01.198Z,100300.14
2023-04-26T00:05:29.983Z,100297.23
2023-04-26T00:07:57.024Z,100299.98
2023-04-26T00:10:24.020Z,100296.35
2023-04-26T00:12:50.942Z,100296.80
2023-04-26T00:15:18.371Z,100292.89
2023-04-26T00:17:45.360Z,100295.11
2023-04-26T00:20:13.720Z,100300.02
2023-04-26T00:22:40.958Z,100296.02
2023-04-26T00:25:08.819Z,100297.20
2023-04-26T00:27:35.863Z,100302.05
2023-04-26T00:30:02.964Z,100303.41
2023-04-26T00:32:31.204Z,100308.42
2023-04-26T00:34:58.192Z,100305.59
2023-04-26T00:37:25.248Z,100308.70
2023-04-26T00:39:52.412Z,100305.64
2023-04-26T00:42:19.677Z,100306.27
2023-04-26T00:44:46.639Z,100307.77
2023-04-26T00:47:13.796Z,100308.02
2023-04-26T00:49:40.998Z,100307.27
2023-04-26T00:52:08.241Z,100313.02
2023-04-26T00:54:35.185Z,100313.85
2023-04-26T00:57:02.506Z,100314.36
2023-04-26T00:59:29.641Z,100317.20
2023-04-26T01:01:57.805Z,100320.52
2023-04-26T01:04:27.605Z,100321.25
2023-04-26T01:06:56.591Z,100323.63
2023-04-26T01:09:23.477Z,100322.33
2023-04-26T01:11:50.399Z,100320.09
2023-04-26T01:14:17.592Z,100321.68
2023-04-26T01:16:47.726Z,100315.91
2023-04-26T01:19:15.423Z,100314.90
2023-04-26T01:21:42.773Z,100315.86
2023-04-26T01:24:10.659Z,100314.20
2023-04-26T01:26:47.937Z,100314.14
2023-04-26T01:29:18.990Z,100316.64
2023-04-26T01:31:46.496Z,100313.20
2023-04-26T01:34:13.999Z,100311.55
2023-04-26T01:36:40.987Z,100310.26
2023-04-26T01:39:09.253Z,100310.08
2023-04-26T01:41:36.929Z,100308.86
2023-04-26T01:44:04.098Z,100307.98
2023-04-26T01:46:31.352Z,100305.23
2023-04-26T01:48:58.403Z,100301.96
2023-04-26T01:51:25.539Z,100301.27
2023-04-26T01:53:52.550Z,100301.17
2023-04-26T01:56:20.182Z,100298.02
2023-04-26T01:58:47.597Z,100295.27
2023-04-26T02:01:14.574Z,100295.23
2023-04-26T02:03:41.678Z,100297.23
2023-04-26T02:06:08.601Z,100295.24
2023-04-26T02:08:36.515Z,100294.73
2023-04-26T02:11:03.874Z,100297.88
2023-04-26T02:13:31.363Z,100298.30
2023-04-26T02:15:59.462Z,100298.55
2023-04-26T02:18:26.962Z,100304.25
2023-04-26T02:20:53.928Z,100300.46
2023-04-26T02:23:20.857Z,100304.42
2023-04-26T02:25:48.998Z,100301.91
2023-04-26T02:28:17.589Z,100300.81
2023-04-26T02:30:45.029Z,100299.64
2023-04-26T02:33:12.066Z,100292.86
2023-04-26T02:35:39.201Z,100294.39
2023-04-26T02:38:06.087Z,100295.41
2023-04-26T02:40:33.675Z,100295.48
2023-04-26T02:43:00.735Z,100290.27
2023-04-26T02:45:27.838Z,100291.06
2023-04-26T02:47:54.940Z,100285.58
2023-04-26T02:50:22.019Z,100286.72
2023-04-26T02:52:49.292Z,100289.31
2023-04-26T02:55:16.347Z,100287.48
2023-04-26T02:57:43.345Z,100286.07
2023-04-26T03:00:14.159Z,100284.27
2023-04-26T03:02:41.953Z,100286.43
2023-04-26T03:05:09.836Z,100288.73
2023-04-26T03:07:37.347Z,100284.02
2023-04-26T03:10:05.647Z,100289.01
2023-04-26T03:12:32.979Z,100287.09
2023-04-26T03:15:00.541Z,100287.39
2023-04-26T03:17:27.794Z,100287.33
2023-04-26T03:19:54.996Z,100286.69
2023-04-26T03:22:21.916Z,100282.31
2023-04-26T03:24:49.464Z,100285.44
2023-04-26T03:27:16.767Z,100280.39
2023-04-26T03:29:44.355Z,100282.09
2023-04-26T03:32:11.711Z,100280.70
2023-04-26T03:34:38.728Z,100280.48
2023-04-26T03:37:05.738Z,100283.23
2023-04-26T03:39:32.816Z,100286.25
2023-04-26T03:42:01.635Z,100282.05
2023-04-26T03:44:30.511Z,100288.16
2023-04-26T03:46:58.438Z,100285.44
2023-04-26T03:49:25.491Z,100287.61
2023-04-26T03:51:52.437Z,100291.01
2023-04-26T03:54:19.588Z,100292.86
2023-04-26T03:56:46.766Z,100293.58
2023-04-26T03:59:13.849Z,100294.10
2023-04-26T04:01:40.887Z,100294.70
2023-04-26T04:04:08.821Z,100297.64
2023-04-26T04:06:36.717Z,100294.11
2023-04-26T04:09:05.696Z,100293.42
2023-04-26T04:11:33.209Z,100290.39
2023-04-26T04:14:00.161Z,100288.13
2023-04-26T04:16:27.156Z,100289.72
2023-04-26T04:18:54.137Z,100288.79
2023-04-26T04:21:21.420Z,100288.73
2023-04-26T04:23:48.306Z,100287.73
2023-04-26T04:26:15.464Z,100285.73
2023-04-26T04:28:42.503Z,100285.66
2023-04-26T04:31:09.993Z,100284.19
2023-04-26T04:33:37.825Z,100287.95
2023-04-26T04:36:06.861Z,100287.77
2023-04-26T04:38:34.422Z,100283.34
2023-04-26T04:41:04.548Z,100272.95
2023-04-26T04:43:32.726Z,100275.61
2023-04-26T04:45:59.844Z,100279.91
2023-04-26T04:48:26.832Z,100284.66
2023-04-26T04:50:55.643Z,100285.24
2023-04-26T04:53:22.630Z,100284.01
2023-04-26T04:55:49.683Z,100280.16
2023-04-26T04:58:17.121Z,100278.56
2023-04-26T05:00:46.063Z,100279.95
2023-04-26T05:03:20.699Z,100284.86
2023-04-26T05:05:48.046Z,100287.31
2023-04-26T05:08:15.333Z,100284.59
2023-04-26T05:10:42.606Z,100285.71
2023-04-26T05:13:10.207Z,100285.42
2023-04-26T05:15:37.604Z,100278.02
2023-04-26T05:18:04.915Z,100278.14
2023-04-26T05:20:33.193Z,100273.48
2023-04-26T05:23:00.326Z,100277.34
2023-04-26T05:25:27.769Z,100277.59
2023-04-26T05:28:00.575Z,100276.63
2023-04-26T05:30:42.280Z,100275.25
2023-04-26T05:33:31.064Z,100275.45
2023-04-26T05:36:16.589Z,100267.83
2023-04-26T05:38:43.532Z,100269.92
2023-04-26T05:41:10.664Z,100268.62
2023-04-26T05:43:38.523Z,100271.25
2023-04-26T05:46:06.194Z,100265.38
2023-04-26T05:48:33.406Z,100265.06
2023-04-26T05:51:00.462Z,100256.62
2023-04-26T05:53:27.635Z,100259.15
2023-04-26T05:55:55.159Z,100261.59
2023-04-26T05:58:23.007Z,100264.48
2023-04-26T06:00:50.341Z,100265.69
2023-04-26T06:03:19.837Z,100266.45
2023-04-26T06:05:47.456Z,100266.52
2023-04-26T06:08:14.717Z,100269.47
2023-04-26T06:10:43.225Z,100268.77
2023-04-26T06:13:14.164Z,100265.56
2023-04-26T06:15:41.424Z,100271.85
2023-04-26T06:18:09.330Z,100279.37
2023-04-26T06:20:36.798Z,100281.44
2023-04-26T06:23:10.128Z,100287.59
2023-04-26T06:25:37.496Z,100287.23
2023-04-26T06:28:04.956Z,100288.17
2023-04-26T06:30:34.693Z,100293.33
2023-04-26T06:33:06.025Z,100295.92
2023-04-26T06:35:33.834Z,100301.08
2023-04-26T06:38:02.091Z,100304.02
2023-04-26T06:40:29.404Z,100306.02
2023-04-26T06:42:57.848Z,100305.56
2023-04-26T06:45:44.903Z,100309.08
2023-04-26T06:48:16.111Z,100313.38
2023-04-26T06:50:46.428Z,100313.86
2023-04-26T06:53:13.792Z,100315.13
2023-04-26T06:55:41.291Z,100313.17
2023-04-26T06:58:08.536Z,100316.20
2023-04-26T07:00:36.171Z,100321.57
2023-04-26T07:03:03.535Z,100324.64
2023-04-26T07:05:30.683Z,100324.89
2023-04-26T07:07:57.731Z,100325.77
2023-04-26T07:10:26.229Z,100327.45
2023-04-26T07:12:53.636Z,100333.19
2023-04-26T07:15:22.402Z,100335.14
2023-04-26T07:17:54.518Z,100333.05
2023-04-26T07:20:23.085Z,100335.39
2023-04-26T07:22:51.318Z,100334.19
2023-04-26T07:25:19.959Z,100336.65
2023-04-26T07:27:47.517Z,100335.46
2023-04-26T07:30:14.887Z,100336.53
2023-04-26T07:32:42.138Z,100336.89
2023-04-26T07:35:16.394Z,100334.66
2023-04-26T07:37:44.905Z,100337.41
2023-04-26T07:40:13.679Z,100334.90
2023-04-26T07:42:40.906Z,100338.41
2023-04-26T07:45:09.189Z,100340.19
2023-04-26T07:47:36.649Z,100340.92
2023-04-26T07:50:04.395Z,100340.23
2023-04-26T07:52:31.511Z,100339.65
2023-04-26T07:54:58.789Z,100341.61
2023-04-26T07:57:25.984Z,100339.21
2023-04-26T07:59:52.950Z,100338.21
2023-04-26T08:02:24.978Z,100339.69
2023-04-26T08:05:00.959Z,100342.09
2023-04-26T08:07:28.609Z,100347.16
2023-04-26T08:09:55.861Z,100349.64
2023-04-26T08:12:23.135Z,100348.96
2023-04-26T08:14:50.840Z,100349.92
2023-04-26T08:17:19.687Z,100344.31
2023-04-26T08:19:49.816Z,100349.05
2023-04-26T08:22:17.114Z,100353.20
2023-04-26T08:24:49.603Z,100346.86
2023-04-26T08:27:17.283Z,100344.00
2023-04-26T08:29:44.559Z,100345.56
2023-04-26T08:32:13.586Z,100346.98
2023-04-26T08:34:41.191Z,100349.58
2023-04-26T08:37:08.323Z,100349.79
2023-04-26T08:39:35.593Z,100347.02
2023-04-26T08:42:16.459Z,100351.38
2023-04-26T08:44:44.891Z,100355.38
2023-04-26T08:47:40.225Z,100356.21
2023-04-26T08:50:07.688Z,100359.52
2023-04-26T08:52:34.803Z,100361.61
2023-04-26T08:55:02.004Z,100358.46
2023-04-26T08:57:29.052Z,100355.26
2023-04-26T08:59:56.348Z,100354.96
2023-04-26T09:02:26.010Z,100354.39
2023-04-26T09:04:53.649Z,100353.35
2023-04-26T09:07:22.365Z,100352.13
2023-04-26T09:09:53.280Z,100352.23
2023-04-26T09:12:21.577Z,100354.92
2023-04-26T09:14:48.723Z,100351.13
2023-04-26T09:17:29.291Z,100350.58
2023-04-26T09:19:56.798Z,100348.13
2023-04-26T09:22:41.010Z,100349.37
2023-04-26T09:25:09.420Z,100347.71
2023-04-26T09:27:38.629Z,100349.18
2023-04-26T09:30:21.127Z,100343.97
2023-04-26T09:32:58.128Z,100341.77
2023-04-26T09:35:39.394Z,100340.97
2023-04-26T09:38:12.175Z,100344.46
2023-04-26T09:40:41.560Z,100347.35
2023-04-26T09:43:20.128Z,100349.48
2023-04-26T09:45:54.959Z,100355.70
2023-04-26T09:48:23.239Z,100352.16
2023-04-26T09:50:54.580Z,100354.70
2023-04-26T09:53:37.291Z,100355.05
2023-04-26T09:56:14.954Z,100356.92
2023-04-26T09:58:48.820Z,100357.63
2023-04-26T10:01:21.717Z,100356.34
2023-04-26T10:03:49.444Z,100359.21
2023-04-26T10:06:17.314Z,100363.42
2023-04-26T10:08:44.615Z,100360.00
2023-04-26T10:11:13.260Z,100361.34
2023-04-26T10:13:41.698Z,100362.14
2023-04-26T10:16:10.716Z,100356.55
2023-04-26T10:18:49.966Z,100355.81
2023-04-26T10:21:33.068Z,100355.92
2023-04-26T10:24:00.483Z,100357.27
2023-04-26T10:26:55.157Z,100354.73
2023-04-26T10:29:24.390Z,100353.81
2023-04-26T10:32:10.772Z,100354.41
2023-04-26T10:34:37.964Z,100354.55
2023-04-26T10:37:15.291Z,100357.33
2023-04-26T10:39:43.279Z,100359.34
2023-04-26T10:42:27.733Z,100353.77
2023-04-26T10:44:55.680Z,100360.27
2023-04-26T10:47:33.894Z,100363.30
2023-04-26T10:50:08.231Z,100365.13
2023-04-26T10:53:07.266Z,100368.78
2023-04-26T10:55:43.512Z,100368.85
2023-04-26T10:58:33.643Z,100369.52
2023-04-26T11:01:17.692Z,100368.55
2023-04-26T11:04:08.717Z,100362.00
2023-04-26T11:06:51.198Z,100365.86
2023-04-26T11:09:35.457Z,100367.61
2023-04-26T11:12:12.873Z,100369.90
2023-04-26T11:14:47.475Z,100374.16
2023-04-26T11:17:14.479Z,100374.83
2023-04-26T11:19:41.844Z,100377.53
2023-04-26T11:22:12.039Z,100377.37
2023-04-26T11:24:39.364Z,100378.61
2023-04-26T11:27:17.452Z,100382.64
2023-04-26T11:29:44.837Z,100383.23
2023-04-26T11:32:16.666Z,100382.54
2023-04-26T11:34:44.279Z,100385.89
2023-04-26T11:37:12.249Z,100386.98
2023-04-26T11:39:41.745Z,100388.95
2023-04-26T11:42:10.559Z,100390.77
2023-04-26T11:44:41.507Z,100391.27
2023-04-26T11:47:09.096Z,100389.96
2023-04-26T11:49:37.421Z,100389.67
2023-04-26T11:52:05.306Z,100387.94
2023-04-26T11:54:34.168Z,100383.52
2023-04-26T11:57:02.440Z,100385.05
2023-04-26T11:59:30.422Z,100386.66
2023-04-26T12:02:00.773Z,100385.61
2023-04-26T12:04:30.555Z,100384.66
2023-04-26T12:07:00.295Z,100383.79
2023-04-26T12:09:28.495Z,100380.58
2023-04-26T12:12:04.337Z,100378.86
2023-04-26T12:14:35.716Z,100379.60
2023-04-26T12:17:03.602Z,100379.65
2023-04-26T12:19:37.538Z,100377.64
2023-04-26T12:22:05.332Z,100380.17
2023-04-26T12:24:38.744Z,100376.17
2023-04-26T12:27:07.428Z,100375.88
2023-04-26T12:29:34.938Z,100374.98
2023-04-26T12:32:02.650Z,100374.81
2023-04-26T12:34:29.973Z,100374.67
2023-04-26T12:36:56.964Z,100374.23
2023-04-26T12:39:27.132Z,100371.48
2023-04-26T12:41:58.139Z,100369.62
2023-04-26T12:44:32.928Z,100366.02
2023-04-26T12:47:00.936Z,100367.38
2023-04-26T12:49:30.764Z,100366.55
2023-04-26T12:51:58.183Z,100368.20
2023-04-26T12:54:25.321Z,100364.79
2023-04-26T12:56:59.464Z,100364.98
2023-04-26T12:59:26.574Z,100363.88
2023-04-26T13:01:53.811Z,100366.92
2023-04-26T13:04:21.136Z,100367.36
2023-04-26T13:06:49.997Z,100369.06
2023-04-26T13:09:20.350Z,100365.81
2023-04-26T13:11:47.516Z,100369.52
2023-04-26T13:14:18.213Z,100371.89
2023-04-26T13:16:46.172Z,100367.91
2023-04-26T13:19:13.908Z,100370.46
2023-04-26T13:21:42.716Z,100372.05
2023-04-26T13:24:09.889Z,100371.27
2023-04-26T13:26:37.455Z,100374.90
2023-04-26T13:29:11.523Z,100373.38
2023-04-26T13:31:40.184Z,100376.17
2023-04-26T13:34:08.199Z,100376.64
2023-04-26T13:36:38.301Z,100378.84
2023-04-26T13:39:07.790Z,100377.23
2023-04-26T13:41:35.852Z,100378.77
2023-04-26T13:44:09.821Z,100382.19
2023-04-26T13:46:37.751Z,100383.05
2023-04-26T13:49:05.697Z,100387.34
2023-04-26T13:51:34.443Z,100383.98
2023-04-26T13:54:01.584Z,100388.50
2023-04-26T13:56:29.027Z,100386.73
2023-04-26T13:59:03.820Z,100387.80
2023-04-26T14:01:36.972Z,100386.50
2023-04-26T14:04:11.674Z,100385.73
2023-04-26T14:06:39.075Z,100383.96
2023-04-26T14:09:07.075Z,100381.08
2023-04-26T14:11:34.107Z,100380.52
2023-04-26T14:14:01.130Z,100375.58
2023-04-26T14:16:28.321Z,100372.61
2023-04-26T14:18:55.838Z,100367.48
2023-04-26T14:21:25.102Z,100371.92
2023-04-26T14:23:52.249Z,100372.17
2023-04-26T14:26:20.535Z,100370.78
2023-04-26T14:28:48.305Z,100369.71
2023-04-26T14:31:18.083Z,100367.52
2023-04-26T14:33:46.427Z,100364.38
2023-04-26T14:36:22.564Z,100361.54
2023-04-26T14:38:51.050Z,100355.73
2023-04-26T14:41:18.682Z,100356.30
2023-04-26T14:43:48.968Z,100356.23
2023-04-26T14:46:16.126Z,100351.36
2023-04-26T14:48:46.850Z,100349.92
2023-04-26T14:51:14.276Z,100349.87
2023-04-26T14:53:41.566Z,100346.94
2023-04-26T14:56:09.617Z,100337.29
2023-04-26T14:58:37.202Z,100336.08
2023-04-26T15:01:05.602Z,100334.41
2023-04-26T15:03:33.171Z,100338.98
2023-04-26T15:06:08.830Z,100332.81
2023-04-26T15:08:36.101Z,100335.16
2023-04-26T15:11:04.405Z,100333.90
2023-04-26T15:13:31.358Z,100327.12
2023-04-26T15:15:59.008Z,100330.57
2023-04-26T15:18:28.754Z,100329.48
2023-04-26T15:20:55.970Z,100329.16
2023-04-26T15:23:23.051Z,100321.80
2023-04-26T15:25:49.933Z,100320.50
2023-04-26T15:28:17.909Z,100322.92
2023-04-26T15:30:44.930Z,100330.02
2023-04-26T15:33:12.909Z,100331.73
2023-04-26T15:35:40.071Z,100332.91
2023-04-26T15:38:07.250Z,100337.66
2023-04-26T15:40:35.778Z,100335.15
2023-04-26T15:43:04.341Z,100334.13
2023-04-26T15:45:31.297Z,100337.88
2023-04-26T15:47:58.309Z,100341.30
2023-04-26T15:50:25.365Z,100345.06
2023-04-26T15:52:52.353Z,100347.05
2023-04-26T15:55:19.377Z,100355.30
2023-04-26T15:57:46.303Z,100353.21
2023-04-26T16:00:14.307Z,100361.16
2023-04-26T16:02:45.051Z,100362.83
2023-04-26T16:05:12.607Z,100361.88
2023-04-26T16:07:40.555Z,100364.20
2023-04-26T16:10:09.451Z,100364.23
2023-04-26T16:12:42.353Z,100368.30
2023-04-26T16:15:09.806Z,100369.15
2023-04-26T16:17:37.398Z,100373.10
2023-04-26T16:20:07.037Z,100377.43
2023-04-26T16:22:34.822Z,100379.39
2023-04-26T16:25:02.196Z,100375.76
2023-04-26T16:27:29.210Z,100373.59
2023-04-26T16:29:57.029Z,100372.48
2023-04-26T16:32:24.075Z,100381.41
2023-04-26T16:34:51.745Z,100385.41
2023-04-26T16:37:18.714Z,100391.51
2023-04-26T16:39:46.079Z,100399.63
2023-04-26T16:42:13.025Z,100401.27
2023-04-26T16:44:40.972Z,100406.35
2023-04-26T16:47:08.097Z,100409.54
2023-04-26T16:49:34.967Z,100409.17
2023-04-26T16:52:02.069Z,100412.34
2023-04-26T16:54:29.335Z,100411.56
2023-04-26T16:56:56.344Z,100405.81
2023-04-26T16:59:23.365Z,100407.66
2023-04-26T17:01:50.960Z,100408.36
2023-04-26T17:04:18.531Z,100410.40
2023-04-26T17:06:46.085Z,100414.61
2023-04-26T17:09:13.131Z,100414.17
2023-04-26T17:11:43.672Z,100414.14
2023-04-26T17:14:10.972Z,100407.31
2023-04-26T17:16:37.979Z,100408.42
2023-04-26T17:19:04.978Z,100410.88
2023-04-26T17:21:32.034Z,100412.17
2023-04-26T17:23:59.993Z,100413.09
2023-04-26T17:26:28.081Z,100420.19
2023-04-26T17:28:56.493Z,100421.90
2023-04-26T17:31:23.461Z,100423.79
2023-04-26T17:33:50.567Z,100420.66
2023-04-26T17:36:18.041Z,100424.69
2023-04-26T17:38:45.570Z,100421.73
2023-04-26T17:41:17.869Z,100422.58
2023-04-26T17:43:45.469Z,100427.64
2023-04-26T17:46:12.656Z,100428.99
2023-04-26T17:48:39.826Z,100431.08
2023-04-26T17:51:06.965Z,100427.01
2023-04-26T17:53:33.920Z,100427.55
2023-04-26T17:56:00.871Z,100429.89
2023-04-26T17:58:27.958Z,100432.48
2023-04-26T18:00:55.463Z,100437.34
2023-04-26T18:03:22.765Z,100440.59
2023-04-26T18:05:50.290Z,100438.75
2023-04-26T18:08:17.213Z,100434.56
2023-04-26T18:10:44.110Z,100433.59
2023-04-26T18:13:11.570Z,100435.79
2023-04-26T18:15:39.094Z,100440.77
2023-04-26T18:18:08.120Z,100446.21
2023-04-26T18:20:36.942Z,100440.59
2023-04-26T18:23:04.116Z,100440.65
2023-04-26T18:25:31.295Z,100436.33
2023-04-26T18:27:58.221Z,100438.70
2023-04-26T18:30:25.269Z,100438.50
2023-04-26T18:32:53.098Z,100436.02
2023-04-26T18:35:20.431Z,100434.30
2023-04-26T18:37:47.439Z,100439.30
2023-04-26T18:40:14.438Z,100434.35
2023-04-26T18:42:42.225Z,100436.91
2023-04-26T18:45:09.634Z,100434.69
2023-04-26T18:47:36.666Z,100435.58
2023-04-26T18:50:04.396Z,100435.43
2023-04-26T18:52:31.485Z,100433.98
2023-04-26T18:54:58.395Z,100432.81
2023-04-26T18:57:26.888Z,100435.83
2023-04-26T18:59:56.805Z,100440.48
2023-04-26T19:02:23.869Z,100445.23
2023-04-26T19:04:51.114Z,100446.19
2023-04-26T19:07:18.396Z,100444.77
2023-04-26T19:09:53.558Z,100445.86
2023-04-26T19:12:21.389Z,100438.52
2023-04-26T19:14:48.490Z,100437.73
2023-04-26T19:17:15.505Z,100435.53
2023-04-26T19:19:42.508Z,100438.23
2023-04-26T19:22:09.474Z,100435.95
2023-04-26T19:24:36.430Z,100435.39
2023-04-26T19:27:04.809Z,100434.48
2023-04-26T19:29:31.832Z,100437.26
2023-04-26T19:32:00.324Z,100431.66
2023-04-26T19:34:27.866Z,100428.46
2023-04-26T19:36:54.887Z,100426.25
2023-04-26T19:39:23.503Z,100425.25
2023-04-26T19:41:50.999Z,100422.55
2023-04-26T19:44:17.980Z,100419.77
2023-04-26T19:46:44.847Z,100417.55
2023-04-26T19:49:12.188Z,100416.55
2023-04-26T19:51:39.172Z,100418.48
2023-04-26T19:54:06.404Z,100420.32
2023-04-26T19:56:33.504Z,100422.40
2023-04-26T19:59:00.525Z,100419.55
2023-04-26T20:01:28.028Z,100419.20
2023-04-26T20:03:55.201Z,100419.05
2023-04-26T20:06:22.381Z,100419.63
2023-04-26T20:08:49.362Z,100418.76
2023-04-26T20:11:17.590Z,100416.89
2023-04-26T20:13:44.656Z,100413.51
2023-04-26T20:16:12.333Z,100413.22
2023-04-26T20:18:39.392Z,100417.95
2023-04-26T20:21:06.358Z,100414.58
2023-04-26T20:23:33.385Z,100416.52
2023-04-26T20:26:00.481Z,100416.26
2023-04-26T20:28:27.542Z,100420.73
2023-04-26T20:30:54.621Z,100419.89
2023-04-26T20:33:21.876Z,100419.27
2023-04-26T20:35:48.777Z,100418.95
2023-04-26T20:38:15.654Z,100418.80
2023-04-26T20:40:42.686Z,100413.27
2023-04-26T20:43:09.609Z,100413.58
2023-04-26T20:45:37.257Z,100413.44
2023-04-26T20:48:04.583Z,100415.38
2023-04-26T20:50:31.613Z,100416.10
2023-04-26T20:52:58.571Z,100421.59
2023-04-26T20:55:25.543Z,100425.86
2023-04-26T20:57:52.541Z,100428.25
2023-04-26T21:00:19.874Z,100430.23
2023-04-26T21:02:47.010Z,100429.67
2023-04-26T21:05:14.223Z,100427.34
2023-04-26T21:07:41.487Z,100431.05
2023-04-26T21:10:09.704Z,100434.45
2023-04-26T21:12:36.787Z,100435.33
2023-04-26T21:15:04.321Z,100440.40
2023-04-26T21:17:31.336Z,100441.45
2023-04-26T21:19:58.265Z,100442.98
2023-04-26T21:22:25.513Z,100445.41
2023-04-26T21:24:52.793Z,100443.04
2023-04-26T21:27:19.789Z,100441.27
2023-04-26T21:29:46.812Z,100441.38
2023-04-26T21:32:13.733Z,100439.58
2023-04-26T21:34:40.882Z,100441.67
2023-04-26T21:37:07.852Z,100442.92
2023-04-26T21:39:34.869Z,100443.75
2023-04-26T21:42:03.593Z,100443.73
2023-04-26T21:44:30.621Z,100447.48
2023-04-26T21:46:57.764Z,100447.95
2023-04-26T21:49:24.734Z,100452.58
2023-04-26T21:51:51.662Z,100452.66
2023-04-26T21:54:18.604Z,100457.07
2023-04-26T21:56:45.496Z,100458.91
2023-04-26T21:59:14.247Z,100457.47
2023-04-26T22:01:41.396Z,100458.38
2023-04-26T22:04:08.453Z,100461.70
2023-04-26T22:06:35.663Z,100463.20
2023-04-26T22:09:03.088Z,100463.31
2023-04-26T22:11:29.988Z,100463.80
2023-04-26T22:13:56.888Z,100464.56
2023-04-26T22:16:23.929Z,100465.29
2023-04-26T22:18:51.162Z,100465.45
2023-04-26T22:21:18.064Z,100462.94
2023-04-26T22:23:44.913Z,100466.62
2023-04-26T22:26:11.956Z,100466.92
2023-04-26T22:28:38.925Z,100473.35
2023-04-26T22:31:05.920Z,100466.80
2023-04-26T22:33:32.909Z,100469.19
2023-04-26T22:35:59.762Z,100466.09
2023-04-26T22:38:26.908Z,100464.88
2023-04-26T22:40:54.147Z,100458.80
2023-04-26T22:43:22.251Z,100457.77
2023-04-26T22:45:49.352Z,100454.96
2023-04-26T22:48:16.273Z,100451.19
2023-04-26T22:50:43.249Z,100453.14
2023-04-26T22:53:10.171Z,100450.80
2023-04-26T22:55:37.107Z,100453.02
2023-04-26T22:58:03.969Z,100450.94
2023-04-26T23:00:31.032Z,100450.05
2023-04-26T23:02:58.005Z,100447.34
2023-04-26T23:05:25.046Z,100446.23
2023-04-26T23:07:52.140Z,100444.40
2023-04-26T23:10:19.113Z,100440.39
2023-04-26T23:12:46.122Z,100443.10
2023-04-26T23:15:13.465Z,100438.55
2023-04-26T23:17:42.024Z,100437.64
2023-04-26T23:20:12.498Z,100434.71
2023-04-26T23:22:42.804Z,100432.31
2023-04-26T23:25:09.837Z,100432.68
2023-04-26T23:27:37.222Z,100434.38
2023-04-26T23:30:05.168Z,100430.73
2023-04-26T23:32:32.169Z,100429.15
2023-04-26T23:34:59.139Z,100431.25
2023-04-26T23:37:26.166Z,100433.55
2023-04-26T23:39:53.068Z,100433.91
2023-04-26T23:42:20.007Z,100435.83
2023-04-26T23:44:46.907Z,100433.63
2023-04-26T23:47:13.828Z,100432.30
2023-04-26T23:49:40.697Z,100432.45
2023-04-26T23:52:07.638Z,100433.64
2023-04-26T23:54:34.512Z,100440.30
2023-04-26T23:57:03.733Z,100443.95
2023-04-26T23:59:30.678Z,100436.29
